Vanilla — 7H56317 — position and weather

sailwx.info

Track history (hours):
 
Tides and Currents Weather Stations Pressure Air Temp Water Temp Dewpoint Dewpoint Depression Visibility Wind Speed Wind Dir Waves Ship Positions

Vanilla

Last reported at 2018-Jun-20 23:29 UTC. Time now 2018-Jun-24 16:46 UTC.
Position N 38°21' E 015°23'.

Length 84 m; draft 4.6 m.

Type: Tanker. MMSI: 215000863.

Date/timePositionNaut miles runAvg speedWind from/ knotsBaromVisibWave heightAir tempDewpointWater temp
2018-Jun-20 23:29N 38°21' E 015°23'4 7.8
2018-Jun-20 22:58N 38°20' E 015°28'  
2018-Jun-12 10:36N 37°59' E 022°54'0 1.2
2018-Jun-12 10:21N 37°59' E 022°55'2 4.7
2018-Jun-12 10:00N 37°58' E 022°56'4 7.0
2018-Jun-12 09:24N 37°55' E 023°00'0 0.5
2018-Jun-12 08:58N 37°55' E 023°01'0 0.0
2018-Jun-12 08:28N 37°55' E 023°01'1 2.4
2018-Jun-12 08:01N 37°54' E 023°02'4 7.3
2018-Jun-12 07:31N 37°52' E 023°05'3 6.5
2018-Jun-12 07:00N 37°50' E 023°09'4 7.1
2018-Jun-12 06:30N 37°49' E 023°13'4 7.1
2018-Jun-12 06:00N 37°47' E 023°17'4 6.4
2018-Jun-12 05:27N 37°45' E 023°21'3 6.8
2018-Jun-12 05:00N 37°44' E 023°24'7 0.4
2018-Jun-11 11:42N 37°40' E 023°31'3 9.0
2018-Jun-11 11:23N 37°39' E 023°35'  
Track history (hours):
 
Tides and Currents Weather Stations Pressure Air Temp Water Temp Dewpoint Dewpoint Depression Visibility Wind Speed Wind Dir Waves Ship Positions

Vanilla

Last reported at 2018-Jun-20 23:29 UTC. Time now 2018-Jun-24 16:46 UTC.
Position N 38°21' E 015°23'.

Length 84 m; draft 4.6 m.

Type: Tanker. MMSI: 215000863.

Date/timePositionNaut miles runAvg speedWind from/ knotsBaromVisibWave heightAir tempDewpointWater temp
2018-Jun-20 23:29N 38°21' E 015°23'4 7.8
2018-Jun-20 22:58N 38°20' E 015°28'  
2018-Jun-12 10:36N 37°59' E 022°54'0 1.2
2018-Jun-12 10:21N 37°59' E 022°55'2 4.7
2018-Jun-12 10:00N 37°58' E 022°56'4 7.0
2018-Jun-12 09:24N 37°55' E 023°00'0 0.5
2018-Jun-12 08:58N 37°55' E 023°01'0 0.0
2018-Jun-12 08:28N 37°55' E 023°01'1 2.4
2018-Jun-12 08:01N 37°54' E 023°02'4 7.3
2018-Jun-12 07:31N 37°52' E 023°05'3 6.5
2018-Jun-12 07:00N 37°50' E 023°09'4 7.1
2018-Jun-12 06:30N 37°49' E 023°13'4 7.1
2018-Jun-12 06:00N 37°47' E 023°17'4 6.4
2018-Jun-12 05:27N 37°45' E 023°21'3 6.8
2018-Jun-12 05:00N 37°44' E 023°24'7 0.4
2018-Jun-11 11:42N 37°40' E 023°31'3 9.0
2018-Jun-11 11:23N 37°39' E 023°35'  

Dump ship's entire track history